Porkalompolo, Sweden

5:53 PM CET on November 21, 2014 (GMT +0100)
Enontekio | Change Station
CLOSE
Current Station
Airport
Location: ENONTEKIO,
Elevation: 1004 ft
Nearby Weather Stations

Elev 1004 ft 68.36 °N, 23.42 °E | Updated 33 minutes ago

Light Snow Showers
Light Showers Snow
7 °F
Feels Like 7 °F
N
2
Wind Variable Wind from SW

Today
High -- | Low -- °F
--% Chance of Precip.
Yesterday
High -- | Low -- °F
Precip. -- in
9:04 AM 1:23 PM
Waning Crescent, 1% visible
Pressure 30.15 in
Visibility 6.2 miles
Clouds Overcast 300 ft
Dew Point 3 °F
Humidity 85%
Rainfall 0.00 in
Snow Depth Not available.
UV 0 out of 12
Pollen Not available.
Air Quality Not available.
Flu Activity Not available.
METAR EFET 211620Z AUTO 22002KT 9999 -SHSN OVC003 M14/M16 Q1021

More Conditions Fewer Conditions

Pressure 30.15 in
Visibility 6.2 miles
Clouds Overcast 300 ft
Dew Point 3 °F
Humidity 85%
Rainfall 0.00 in
Snow Depth Not available.
UV 0 out of 12
Pollen Not available.
Air Quality Not available.
Flu Activity Not available.
METAR EFET 211620Z AUTO 22002KT 9999 -SHSN OVC003 M14/M16 Q1021

More Conditions Fewer Conditions

10-Day Weather Forecast

Almanac

Astronomy

Nov. 21, 2014 Rise Set
Actual Time
Civil Twilight
Nautical Twilight
Astronomical Twilight
Moon
Length of Visible Light
Length of Day
Tomorrow will be .
, % of the Moon is Illuminated

Today's Extremes

Country Highs Country Lows

Community

WunderPhotos

Upload Photos

1,772,687 photos uploaded!

WunderBlogs® & News

Nearby

Air Quality

  Air Quality AQ Index Pollutant
Not available.

Snow Depth

Station Depth Elevation

Earthquake Activity

City Distance Mag. Time & Date
Minimum magnitude displayed is 2.5.

Coastal Water Temperatures

Place Temperature

Nearby Weather Stations